Crossroads

2020-09-27 18:00:00

  • imperial
Date Time Air Temperature Relative Humidity Wind Speed Wind Dir. Precipitation Solar Radiation Soil Temperature Soil Temperature Soil Temperature Soil Temperature Soil Temperature
5cm 10cm 20cm 50cm 100cm
US/Mountain F % MPH deg in MJ/m^2 F F F F F
max min avg max min max avg avg
2020-09-26 20:00:00 85.5 79.2 82.4 11.0 9.0 8.0 6.1 276.0 0.00 0.0000000 90.7 89.8 83.1 -147.8 77.2
2020-09-26 21:00:00 79.2 70.5 74.5 15.0 11.0 7.6 5.2 281.0 0.00 0.0000000 88.3 88.3 83.3 -147.8 77.2
2020-09-26 22:00:00 73.2 70.9 72.0 16.0 14.0 7.8 6.0 284.0 0.00 0.0000000 86.0 86.5 83.3 -147.8 77.2
2020-09-26 23:00:00 72.3 65.7 69.8 20.0 15.0 7.7 5.4 285.0 0.00 0.0000000 84.0 85.1 83.3 -147.8 77.2
2020-09-27 00:00:00 67.1 65.7 66.2 20.0 19.0 7.0 5.4 292.0 0.00 0.0000000 82.0 83.7 82.8 -147.8 77.2
2020-09-27 01:00:00 70.2 67.1 68.9 20.0 18.0 7.9 6.2 288.0 0.00 0.0000000 80.4 82.2 82.4 -147.8 77.2
2020-09-27 02:00:00 68.2 66.0 66.9 22.0 19.0 8.8 6.8 273.0 0.00 0.0000000 79.2 81.1 81.9 -147.8 77.2
2020-09-27 03:00:00 67.1 66.0 66.4 22.0 20.0 10.5 7.7 283.0 0.00 0.0000000 77.9 80.1 81.3 -147.8 77.2
2020-09-27 04:00:00 70.9 67.1 69.1 20.0 17.0 13.2 8.6 290.0 0.00 0.0000000 76.8 79.0 80.8 -147.8 77.2
2020-09-27 05:00:00 69.6 67.5 68.4 20.0 18.0 10.8 8.4 289.0 0.00 0.0000000 76.1 78.3 80.2 -147.8 77.2
2020-09-27 06:00:00 68.5 66.6 67.3 21.0 19.0 15.0 9.3 294.0 0.00 0.0000000 75.4 77.5 79.7 -147.8 77.2
2020-09-27 07:00:00 69.6 67.8 68.9 19.0 17.0 14.7 10.8 304.0 0.00 0.0170640 74.7 76.8 79.2 -147.8 77.2
2020-09-27 08:00:00 73.0 67.5 68.4 19.0 17.0 14.9 10.5 310.0 0.00 0.3618000 74.1 76.1 78.6 -147.8 77.2
2020-09-27 09:00:00 80.6 73.0 76.6 17.0 12.0 19.9 13.8 327.0 0.00 1.1062800 74.3 75.7 78.3 -147.8 77.2
2020-09-27 10:00:00 86.4 80.6 82.9 12.0 9.0 19.8 13.5 347.0 0.00 1.8331200 75.7 76.1 77.9 -147.8 77.4
2020-09-27 11:00:00 87.3 84.6 85.5 9.0 8.0 16.6 10.5 8.0 0.00 2.4123600 78.4 77.4 77.5 -147.8 77.2
2020-09-27 12:00:00 89.8 86.5 87.4 8.0 8.0 18.9 12.2 1.0 0.00 2.8224000 81.9 79.5 77.5 -147.8 77.2
2020-09-27 13:00:00 92.1 89.4 90.1 8.0 7.0 19.1 10.2 350.0 0.00 2.9844000 85.6 82.0 77.9 -147.8 77.2
2020-09-27 14:00:00 92.8 90.9 91.9 8.0 7.0 20.0 11.0 350.0 0.00 2.9124000 89.4 84.9 78.4 -147.8 77.2
2020-09-27 15:00:00 94.8 92.1 93.0 8.0 7.0 17.7 9.3 353.0 0.00 2.6172000 92.3 87.4 79.2 -147.8 77.2
2020-09-27 16:00:00 95.4 94.3 94.6 7.0 6.0 17.7 10.3 347.0 0.00 2.1409200 94.3 89.6 80.1 -147.8 77.2
2020-09-27 17:00:00 94.6 88.2 93.2 17.0 6.0 26.1 14.9 46.0 0.00 1.4407200 95.0 91.0 81.1 -147.8 77.4
2020-09-27 18:00:00 88.2 80.6 85.5 27.0 17.0 28.1 19.6 66.0 0.00 0.6591600 94.1 91.4 82.0 -147.8 77.4

Data is presented as is, with no certification of correctness. DO NOT USE IN LEGAL PROCEEDINGS.